createdAt,value
2019-03-23T00:00:52.799Z,98939.51
2019-03-23T00:01:55.747Z,98940.39
2019-03-23T00:02:58.965Z,98939.55
2019-03-23T00:04:04.582Z,98939.55
2019-03-23T00:05:10.164Z,98949.84
2019-03-23T00:06:14.554Z,98947.19
2019-03-23T00:07:18.911Z,98954.28
2019-03-23T00:08:22.100Z,98954.28
2019-03-23T00:09:29.874Z,98951.08
2019-03-23T00:10:33.612Z,98941.64
2019-03-23T00:11:36.682Z,98946.80
2019-03-23T00:12:41.077Z,98946.80
2019-03-23T00:13:45.213Z,98946.80
2019-03-23T00:14:50.780Z,98950.34
2019-03-23T00:15:53.745Z,98950.34
2019-03-23T00:16:56.781Z,98948.94
2019-03-23T00:17:59.621Z,98948.52
2019-03-23T00:19:03.577Z,98936.25
2019-03-23T00:20:09.472Z,98943.59
2019-03-23T00:21:12.417Z,98943.59
2019-03-23T00:22:15.266Z,98939.34
2019-03-23T00:23:18.100Z,98945.34
2019-03-23T00:24:20.924Z,98945.34
2019-03-23T00:25:23.750Z,98940.77
2019-03-23T00:26:26.931Z,98940.77
2019-03-23T00:27:29.755Z,98937.95
2019-03-23T00:28:32.700Z,98933.36
2019-03-23T00:29:35.538Z,98933.69
2019-03-23T00:30:38.337Z,98936.35
2019-03-23T00:31:41.704Z,98934.70
2019-03-23T00:32:44.879Z,98934.70
2019-03-23T00:33:47.756Z,98935.67
2019-03-23T00:34:50.586Z,98934.06
2019-03-23T00:35:53.436Z,98934.66
2019-03-23T00:36:56.372Z,98929.30
2019-03-23T00:37:59.566Z,98929.30
2019-03-23T00:39:02.842Z,98937.73
2019-03-23T00:40:05.667Z,98937.73
2019-03-23T00:41:08.516Z,98934.17
2019-03-23T00:42:11.346Z,98937.09
2019-03-23T00:43:17.235Z,98924.41
2019-03-23T00:44:27.708Z,98945.53
2019-03-23T00:45:35.824Z,98945.53
2019-03-23T00:46:38.666Z,98946.98
2019-03-23T00:47:42.724Z,98945.39
2019-03-23T00:48:45.624Z,98945.39
2019-03-23T00:49:48.464Z,98944.31
2019-03-23T00:50:51.752Z,98944.31
2019-03-23T00:51:55.238Z,98943.63
2019-03-23T00:52:58.483Z,98936.63
2019-03-23T00:54:04.483Z,98930.95
2019-03-23T00:55:07.358Z,98937.62
2019-03-23T00:56:10.269Z,98936.05
2019-03-23T00:57:13.380Z,98940.14
2019-03-23T00:58:16.522Z,98933.66
2019-03-23T00:59:19.358Z,98928.23
2019-03-23T01:00:22.340Z,98938.56
2019-03-23T01:01:25.110Z,98938.56
2019-03-23T01:02:28.029Z,98935.00
2019-03-23T01:03:31.176Z,98943.25
2019-03-23T01:04:33.990Z,98943.25
2019-03-23T01:05:37.196Z,98951.33
2019-03-23T01:06:40.138Z,98951.33
2019-03-23T01:07:43.078Z,98943.94
2019-03-23T01:08:45.890Z,98947.52
2019-03-23T01:09:48.984Z,98949.95
2019-03-23T01:10:51.856Z,98955.08
2019-03-23T01:11:55.038Z,98948.05
2019-03-23T01:12:57.897Z,98948.05
2019-03-23T01:14:01.127Z,98943.92
2019-03-23T01:15:04.074Z,98943.92
2019-03-23T01:16:07.291Z,98942.63
2019-03-23T01:17:10.561Z,98950.27
2019-03-23T01:18:13.414Z,98950.54
2019-03-23T01:19:16.338Z,98946.80
2019-03-23T01:20:19.620Z,98941.92
2019-03-23T01:21:22.509Z,98937.59
2019-03-23T01:22:25.627Z,98943.55
2019-03-23T01:23:28.527Z,98940.02
2019-03-23T01:24:31.347Z,98937.94
2019-03-23T01:25:34.159Z,98938.45
2019-03-23T01:26:36.965Z,98938.45
2019-03-23T01:27:39.798Z,98939.20
2019-03-23T01:28:43.358Z,98939.20
2019-03-23T01:29:48.677Z,98937.66
2019-03-23T01:30:51.922Z,98925.50
2019-03-23T01:31:54.788Z,98941.95
2019-03-23T01:32:57.992Z,98937.96
2019-03-23T01:34:00.867Z,98937.96
2019-03-23T01:35:03.666Z,98939.27
2019-03-23T01:36:06.489Z,98937.91
2019-03-23T01:37:09.761Z,98934.37
2019-03-23T01:38:12.599Z,98933.08
2019-03-23T01:39:15.660Z,98937.99
2019-03-23T01:40:18.713Z,98930.69
2019-03-23T01:41:21.634Z,98927.50
2019-03-23T01:42:24.472Z,98930.75
2019-03-23T01:43:27.319Z,98930.49
2019-03-23T01:44:30.232Z,98930.49
2019-03-23T01:45:33.145Z,98924.84
2019-03-23T01:46:36.258Z,98931.34
2019-03-23T01:47:39.104Z,98934.01
2019-03-23T01:48:41.889Z,98923.47
2019-03-23T01:49:44.763Z,98929.45
2019-03-23T01:50:47.629Z,98930.77
2019-03-23T01:51:50.834Z,98930.22
2019-03-23T01:52:53.977Z,98925.59
2019-03-23T01:53:56.836Z,98925.59
2019-03-23T01:54:59.645Z,98921.27
2019-03-23T01:56:02.544Z,98922.59
2019-03-23T01:57:05.408Z,98927.17
2019-03-23T01:58:08.238Z,98923.94
2019-03-23T01:59:11.345Z,98923.11
2019-03-23T02:00:14.234Z,98923.94
2019-03-23T02:01:17.415Z,98916.34
2019-03-23T02:02:20.654Z,98919.56
2019-03-23T02:03:23.451Z,98907.97
2019-03-23T02:04:26.256Z,98918.28
2019-03-23T02:05:29.364Z,98919.91
2019-03-23T02:06:32.552Z,98912.09
2019-03-23T02:07:35.438Z,98921.30
2019-03-23T02:08:38.226Z,98921.30
2019-03-23T02:09:41.051Z,98916.47
2019-03-23T02:10:43.860Z,98922.38
2019-03-23T02:11:46.960Z,98917.78
2019-03-23T02:12:50.186Z,98922.08
2019-03-23T02:13:53.043Z,98921.79
2019-03-23T02:14:55.904Z,98922.86
2019-03-23T02:15:59.079Z,98923.16
2019-03-23T02:17:01.972Z,98923.45
2019-03-23T02:18:05.079Z,98920.48
2019-03-23T02:19:09.563Z,98922.37
2019-03-23T02:20:12.403Z,98928.56
2019-03-23T02:21:15.245Z,98929.91
2019-03-23T02:22:18.120Z,98931.27
2019-03-23T02:23:21.277Z,98923.73
2019-03-23T02:24:24.406Z,98922.62
2019-03-23T02:25:27.564Z,98923.97
2019-03-23T02:26:30.368Z,98921.26
2019-03-23T02:27:33.243Z,98922.61
2019-03-23T02:28:36.105Z,98927.98
2019-03-23T02:29:39.003Z,98926.94
2019-03-23T02:30:42.112Z,98921.03
2019-03-23T02:31:47.213Z,98921.03
2019-03-23T02:32:49.998Z,98925.87
2019-03-23T02:33:52.910Z,98926.70
2019-03-23T02:34:55.736Z,98928.89
2019-03-23T02:35:58.549Z,98930.25
2019-03-23T02:37:01.635Z,98931.86
2019-03-23T02:38:04.522Z,98929.97
2019-03-23T02:39:07.600Z,98928.65
2019-03-23T02:40:11.135Z,98930.83
2019-03-23T02:41:17.716Z,98931.34
2019-03-23T02:42:20.576Z,98931.34
2019-03-23T02:43:23.702Z,98931.33
2019-03-23T02:44:27.068Z,98938.62
2019-03-23T02:45:30.490Z,98938.62
2019-03-23T02:46:33.533Z,98940.52
2019-03-23T02:47:36.339Z,98940.23
2019-03-23T02:48:39.211Z,98935.63
2019-03-23T02:49:43.579Z,98943.20
2019-03-23T02:50:46.470Z,98942.41
2019-03-23T02:51:49.289Z,98941.59
2019-03-23T02:52:52.134Z,98934.84
2019-03-23T02:53:54.960Z,98934.56
2019-03-23T02:54:57.780Z,98935.67
2019-03-23T02:56:00.967Z,98930.27
2019-03-23T02:57:03.783Z,98930.27
2019-03-23T02:58:06.594Z,98932.44
2019-03-23T02:59:09.505Z,98932.44
2019-03-23T03:00:12.295Z,98934.05
2019-03-23T03:01:15.177Z,98934.05
2019-03-23T03:02:18.299Z,98940.27
2019-03-23T03:03:21.505Z,98941.63
2019-03-23T03:04:24.311Z,98936.46
2019-03-23T03:05:27.137Z,98945.91
2019-03-23T03:06:30.004Z,98947.29
2019-03-23T03:07:41.742Z,98945.38
2019-03-23T03:08:37.673Z,98940.77
2019-03-23T03:09:40.475Z,98942.41
2019-03-23T03:10:43.359Z,98951.31
2019-03-23T03:11:46.149Z,98948.61
2019-03-23T03:12:48.977Z,98948.61
2019-03-23T03:13:52.093Z,98948.09
2019-03-23T03:14:54.887Z,98945.91
2019-03-23T03:15:58.161Z,98948.61
2019-03-23T03:17:01.044Z,98938.88
2019-03-23T03:18:03.882Z,98946.42
2019-03-23T03:19:06.701Z,98946.42
2019-03-23T03:20:10.262Z,98940.50
2019-03-23T03:21:13.149Z,98945.34
2019-03-23T03:22:15.975Z,98944.01
2019-03-23T03:23:18.859Z,98934.56
2019-03-23T03:24:21.649Z,98934.56
2019-03-23T03:25:24.754Z,98944.84
2019-03-23T03:26:27.924Z,98948.09
2019-03-23T03:27:30.776Z,98953.73
2019-03-23T03:28:33.893Z,98950.23
2019-03-23T03:29:37.875Z,98955.91
2019-03-23T03:30:41.185Z,98951.86
2019-03-23T03:31:44.070Z,98951.86
2019-03-23T03:32:47.475Z,98957.54
2019-03-23T03:33:50.421Z,98946.19
2019-03-23T03:34:53.322Z,98955.91
2019-03-23T03:35:56.552Z,98955.09
2019-03-23T03:36:59.414Z,98959.13
2019-03-23T03:38:02.612Z,98959.13
2019-03-23T03:39:05.919Z,98953.22
2019-03-23T03:40:09.037Z,98954.56
2019-03-23T03:41:11.890Z,98955.64
2019-03-23T03:42:14.851Z,98956.16
2019-03-23T03:43:17.729Z,98951.59
2019-03-23T03:44:22.097Z,98956.16
2019-03-23T03:45:25.228Z,98956.16
2019-03-23T03:46:28.134Z,98959.69
2019-03-23T03:47:31.022Z,98959.69
2019-03-23T03:48:34.303Z,98952.94
2019-03-23T03:49:37.116Z,98951.06
2019-03-23T03:50:39.933Z,98951.86
2019-03-23T03:51:43.125Z,98951.86
2019-03-23T03:52:46.368Z,98957.53
2019-03-23T03:53:49.218Z,98955.09
2019-03-23T03:54:52.113Z,98953.73
2019-03-23T03:55:54.936Z,98953.73
2019-03-23T03:56:57.765Z,98955.87
2019-03-23T03:58:00.958Z,98959.11
2019-03-23T03:59:03.757Z,98962.61
2019-03-23T04:00:06.612Z,98955.35
2019-03-23T04:01:09.458Z,98946.98
2019-03-23T04:02:12.659Z,98957.77
2019-03-23T04:03:15.556Z,98957.77
2019-03-23T04:04:18.666Z,98949.17
2019-03-23T04:05:21.887Z,98949.17
2019-03-23T04:06:24.795Z,98954.56
2019-03-23T04:07:28.035Z,98957.27
2019-03-23T04:08:31.663Z,98945.58
2019-03-23T04:09:34.464Z,98949.31
2019-03-23T04:10:37.590Z,98949.01
2019-03-23T04:11:40.454Z,98954.42
2019-03-23T04:12:43.653Z,98954.48
2019-03-23T04:13:46.455Z,98954.48
2019-03-23T04:14:49.302Z,98946.12
2019-03-23T04:15:52.132Z,98958.02
2019-03-23T04:16:56.466Z,98951.52
2019-03-23T04:17:59.283Z,98944.53
2019-03-23T04:19:02.069Z,98955.05
2019-03-23T04:20:04.954Z,98955.05
2019-03-23T04:21:08.186Z,98953.16
2019-03-23T04:22:10.976Z,98953.97
2019-03-23T04:23:14.051Z,98949.87
2019-03-23T04:24:16.843Z,98955.50
2019-03-23T04:25:19.739Z,98961.66
2019-03-23T04:26:22.561Z,98961.66
2019-03-23T04:27:28.148Z,98971.81
2019-03-23T04:28:30.953Z,98969.64
2019-03-23T04:29:36.541Z,98969.64
2019-03-23T04:30:39.803Z,98969.94
2019-03-23T04:31:42.598Z,98969.72
2019-03-23T04:32:45.506Z,98970.03
2019-03-23T04:33:48.316Z,98980.55
2019-03-23T04:34:51.156Z,98977.09
2019-03-23T04:35:54.521Z,98963.34
2019-03-23T04:36:57.362Z,98968.73
2019-03-23T04:38:00.217Z,98966.11
2019-03-23T04:39:03.054Z,98977.15
2019-03-23T04:40:05.880Z,98977.15
2019-03-23T04:41:09.585Z,98977.39
2019-03-23T04:42:13.035Z,98984.66
2019-03-23T04:43:16.280Z,98975.47
2019-03-23T04:44:19.133Z,98977.66
2019-03-23T04:45:21.996Z,98977.66
2019-03-23T04:46:24.914Z,98979.87
2019-03-23T04:47:27.804Z,98980.94
2019-03-23T04:48:31.366Z,98980.94
2019-03-23T04:49:34.196Z,98977.22
2019-03-23T04:50:43.116Z,98977.53
2019-03-23T04:51:46.419Z,98978.38
2019-03-23T04:52:49.214Z,98971.39
2019-03-23T04:53:52.012Z,98978.73
2019-03-23T04:54:55.548Z,98981.73
2019-03-23T04:55:58.373Z,98974.70
2019-03-23T04:57:01.263Z,98981.16
2019-03-23T04:58:04.057Z,98979.80
2019-03-23T04:59:06.887Z,98979.80
2019-03-23T05:00:09.710Z,98982.49
2019-03-23T05:01:12.786Z,98980.30
2019-03-23T05:02:15.694Z,98976.20
2019-03-23T05:03:18.513Z,98982.42
2019-03-23T05:04:22.548Z,98981.55
2019-03-23T05:05:25.737Z,98978.33
2019-03-23T05:06:28.913Z,98982.34
2019-03-23T05:07:32.346Z,98979.64
2019-03-23T05:08:35.136Z,98984.44
2019-03-23T05:09:40.738Z,98980.84
2019-03-23T05:10:43.680Z,98978.41
2019-03-23T05:11:46.878Z,98985.44
2019-03-23T05:12:52.275Z,98993.53
2019-03-23T05:13:58.288Z,98993.53
2019-03-23T05:15:01.930Z,98998.72
2019-03-23T05:16:05.157Z,98997.42
2019-03-23T05:17:08.026Z,98998.52
2019-03-23T05:18:11.435Z,98999.33
2019-03-23T05:19:14.602Z,98992.36
2019-03-23T05:20:17.692Z,98993.78
2019-03-23T05:21:20.993Z,98993.78
2019-03-23T05:22:23.783Z,99002.11
2019-03-23T05:23:26.665Z,98994.55
2019-03-23T05:24:29.898Z,99000.47
2019-03-23T05:25:32.717Z,99001.55
2019-03-23T05:26:35.862Z,99001.55
2019-03-23T05:27:38.674Z,99003.63
2019-03-23T05:28:43.442Z,99003.63
2019-03-23T05:29:46.221Z,99008.72
2019-03-23T05:30:49.075Z,99000.86
2019-03-23T05:31:54.299Z,99008.14
2019-03-23T05:32:57.401Z,99009.27
2019-03-23T05:34:00.192Z,99003.80
2019-03-23T05:35:02.988Z,99013.32
2019-03-23T05:36:05.877Z,99011.70
2019-03-23T05:37:08.697Z,99014.39
2019-03-23T05:38:11.504Z,99016.22
2019-03-23T05:39:15.100Z,99018.06
2019-03-23T05:40:18.331Z,99018.06
2019-03-23T05:41:21.212Z,99021.75
2019-03-23T05:42:24.058Z,99025.22
2019-03-23T05:43:27.003Z,99028.72
2019-03-23T05:44:31.044Z,99029.50
2019-03-23T05:45:34.232Z,99028.26
2019-03-23T05:46:37.327Z,99029.16
2019-03-23T05:47:40.159Z,99030.03
2019-03-23T05:48:42.941Z,99031.67
2019-03-23T05:49:46.593Z,99028.00
2019-03-23T05:50:50.429Z,99028.00
2019-03-23T05:51:53.602Z,99036.31
2019-03-23T05:52:56.505Z,99035.28
2019-03-23T05:54:01.852Z,99044.69
2019-03-23T05:55:04.686Z,99043.09
2019-03-23T05:56:07.565Z,99043.09
2019-03-23T05:57:13.495Z,99041.30
2019-03-23T05:58:16.652Z,99040.23
2019-03-23T05:59:19.738Z,99045.35
2019-03-23T06:00:22.550Z,99045.33
2019-03-23T06:01:25.422Z,99045.33
2019-03-23T06:02:28.303Z,99047.03
2019-03-23T06:03:31.139Z,99047.03
2019-03-23T06:04:34.265Z,99041.40
2019-03-23T06:05:37.519Z,99043.86
2019-03-23T06:06:40.372Z,99041.61
2019-03-23T06:07:43.203Z,99041.28
2019-03-23T06:08:54.488Z,99036.33
2019-03-23T06:09:51.035Z,99043.57
2019-03-23T06:10:54.132Z,99046.27
2019-03-23T06:11:57.044Z,99046.27
2019-03-23T06:13:02.322Z,99057.43
2019-03-23T06:14:05.220Z,99051.97
2019-03-23T06:15:08.051Z,99056.41
2019-03-23T06:16:10.906Z,99054.30
2019-03-23T06:17:16.694Z,99059.45
2019-03-23T06:18:23.975Z,99055.44
2019-03-23T06:19:26.913Z,99055.44
2019-03-23T06:20:31.971Z,99045.20
2019-03-23T06:21:34.800Z,99034.67
2019-03-23T06:22:37.706Z,99042.34
2019-03-23T06:23:40.883Z,99042.34
2019-03-23T06:24:43.789Z,99036.79
2019-03-23T06:25:46.578Z,99044.39
2019-03-23T06:26:49.412Z,99039.57
2019-03-23T06:27:52.494Z,99035.80
2019-03-23T06:28:55.726Z,99036.34
2019-03-23T06:29:58.859Z,99036.34
2019-03-23T06:43:59.520Z,99044.83
2019-03-23T06:45:02.458Z,99048.13
2019-03-23T06:46:05.328Z,99048.13
2019-03-23T06:47:08.185Z,99053.52
2019-03-23T06:48:10.985Z,99053.52
2019-03-23T06:49:14.093Z,99052.02
2019-03-23T06:50:18.955Z,99056.41
2019-03-23T06:51:21.845Z,99052.86
2019-03-23T06:52:25.068Z,99048.99
2019-03-23T06:53:27.870Z,99048.99
2019-03-23T06:54:30.676Z,99051.98
2019-03-23T06:55:33.821Z,99051.00
2019-03-23T06:56:38.925Z,99054.52
2019-03-23T06:57:41.789Z,99048.04
2019-03-23T06:58:44.596Z,99055.19
2019-03-23T06:59:47.389Z,99053.88
2019-03-23T07:00:50.252Z,99060.97
2019-03-23T07:01:53.163Z,99059.15
2019-03-23T07:02:58.247Z,99064.70
2019-03-23T07:04:01.101Z,99064.70
2019-03-23T07:05:03.915Z,99056.44
2019-03-23T07:06:06.763Z,99053.41
2019-03-23T07:07:11.138Z,99053.41
2019-03-23T07:08:15.391Z,99055.34
2019-03-23T07:09:18.213Z,99058.59
2019-03-23T07:10:21.067Z,99065.73
2019-03-23T07:11:25.696Z,99062.41
2019-03-23T07:12:28.598Z,99062.41
2019-03-23T07:13:34.771Z,99060.27
2019-03-23T07:14:37.602Z,99055.35
2019-03-23T07:15:40.766Z,99053.89
2019-03-23T07:16:43.609Z,99053.89
2019-03-23T07:17:52.387Z,99059.00
2019-03-23T07:18:55.267Z,99054.99
2019-03-23T07:20:00.519Z,99043.58
2019-03-23T07:21:03.732Z,99046.45
2019-03-23T07:22:06.559Z,99046.38
2019-03-23T07:23:09.400Z,99046.38
2019-03-23T07:24:12.654Z,99036.74
2019-03-23T07:25:15.853Z,99036.74
2019-03-23T07:26:18.664Z,99045.97
2019-03-23T07:27:21.511Z,99044.38
2019-03-23T07:28:24.322Z,99048.30
2019-03-23T07:29:27.213Z,99040.26
2019-03-23T07:30:31.235Z,99044.73
2019-03-23T07:31:36.117Z,99049.75
2019-03-23T07:32:39.429Z,99049.75
2019-03-23T07:33:45.247Z,99052.47
2019-03-23T07:34:48.584Z,99055.50
2019-03-23T07:35:54.640Z,99056.58
2019-03-23T07:36:57.532Z,99057.19
2019-03-23T07:38:00.658Z,99057.19
2019-03-23T07:39:26.465Z,99060.95
2019-03-23T07:40:20.890Z,99061.98
2019-03-23T07:41:23.816Z,99063.04
2019-03-23T07:42:26.623Z,99057.37
2019-03-23T07:43:31.097Z,99053.77
2019-03-23T07:44:34.338Z,99052.59
2019-03-23T07:45:38.272Z,99052.59
2019-03-23T07:46:41.601Z,99051.95
2019-03-23T07:47:44.473Z,99047.02
2019-03-23T07:48:47.327Z,99042.69
2019-03-23T07:49:50.201Z,99047.24
2019-03-23T07:50:53.312Z,99041.04
2019-03-23T07:51:56.122Z,99046.59
2019-03-23T07:53:01.879Z,99046.39
2019-03-23T07:54:04.412Z,99047.52
2019-03-23T07:55:07.298Z,99047.00
2019-03-23T07:56:10.103Z,99053.77
2019-03-23T07:57:13.646Z,99049.71
2019-03-23T07:58:16.529Z,99049.71
2019-03-23T07:59:19.355Z,99062.52
2019-03-23T08:00:22.205Z,99056.08
2019-03-23T08:01:27.324Z,99059.36
2019-03-23T08:02:34.329Z,99058.79
2019-03-23T08:03:39.326Z,99059.23
2019-03-23T08:04:42.155Z,99067.77
2019-03-23T08:05:53.847Z,99061.13
2019-03-23T08:06:57.063Z,99064.63
2019-03-23T08:08:01.836Z,99066.34
2019-03-23T08:09:05.875Z,99066.34
2019-03-23T08:10:12.031Z,99063.53
2019-03-23T08:11:16.912Z,99068.70
2019-03-23T08:12:19.382Z,99071.83
2019-03-23T08:13:28.343Z,99069.45
2019-03-23T08:14:32.656Z,99077.25
2019-03-23T08:15:35.477Z,99077.25
2019-03-23T08:16:38.691Z,99068.94
2019-03-23T08:17:44.716Z,99068.94
2019-03-23T08:18:50.577Z,99066.66
2019-03-23T08:19:54.721Z,99069.25
2019-03-23T08:21:01.289Z,99068.53
2019-03-23T08:22:06.078Z,99068.59
2019-03-23T08:23:29.023Z,99064.81
2019-03-23T08:24:34.257Z,99064.45
2019-03-23T08:25:37.205Z,99068.88
2019-03-23T08:26:49.816Z,99068.88
2019-03-23T08:27:55.072Z,99070.28
2019-03-23T08:28:59.612Z,99070.28
2019-03-23T08:30:07.844Z,99078.53
2019-03-23T08:31:10.716Z,99078.53
2019-03-23T08:32:13.513Z,99074.83
2019-03-23T08:33:18.288Z,99084.50
2019-03-23T08:34:22.050Z,99084.45
2019-03-23T08:35:25.289Z,99084.45
2019-03-23T08:36:28.513Z,99078.46
2019-03-23T08:37:38.081Z,99078.46
2019-03-23T08:38:40.634Z,99078.75
2019-03-23T08:39:50.709Z,99077.59
2019-03-23T08:40:55.014Z,99081.73
2019-03-23T08:41:58.939Z,99081.73
2019-03-23T08:43:02.106Z,99081.34
2019-03-23T08:44:04.969Z,99081.34
2019-03-23T08:45:07.860Z,99090.22
2019-03-23T08:46:20.043Z,99083.35
2019-03-23T08:47:25.414Z,99083.35
2019-03-23T08:48:28.800Z,99096.80
2019-03-23T08:49:32.167Z,99096.80
2019-03-23T08:50:37.532Z,99076.59
2019-03-23T08:51:42.848Z,99084.49
2019-03-23T08:52:46.001Z,99084.49
2019-03-23T08:53:50.496Z,99068.36
2019-03-23T08:55:02.350Z,99065.71
2019-03-23T08:56:05.822Z,99072.59
2019-03-23T08:57:08.640Z,99071.80
2019-03-23T08:58:13.921Z,99067.69
2019-03-23T08:59:16.768Z,99083.00
2019-03-23T09:00:19.589Z,99083.00
2019-03-23T09:01:25.762Z,99086.55
2019-03-23T09:02:28.672Z,99080.33
2019-03-23T09:03:33.318Z,99077.19
2019-03-23T09:04:36.119Z,99077.19
2019-03-23T09:05:38.987Z,99080.92
2019-03-23T09:06:41.813Z,99074.52
2019-03-23T09:08:53.628Z,99081.44
2019-03-23T09:09:59.483Z,99077.45
2019-03-23T09:11:00.946Z,99077.45
2019-03-23T09:12:05.270Z,99083.19
2019-03-23T09:13:10.897Z,99083.19
2019-03-23T09:14:14.641Z,99087.42
2019-03-23T09:15:17.480Z,99087.56
2019-03-23T09:16:20.305Z,99087.56
2019-03-23T09:17:23.110Z,99088.92
2019-03-23T09:18:26.348Z,99088.92
2019-03-23T09:19:32.413Z,99096.38
2019-03-23T09:20:35.672Z,99085.94
2019-03-23T09:21:38.479Z,99085.94
2019-03-23T09:22:44.010Z,99098.09
2019-03-23T09:23:47.716Z,99096.14
2019-03-23T09:24:50.607Z,99099.65
2019-03-23T09:25:53.401Z,99097.97
2019-03-23T09:26:56.873Z,99097.97
2019-03-23T09:27:59.759Z,99087.06
2019-03-23T09:29:02.624Z,99087.06
2019-03-23T09:30:05.636Z,99093.69
2019-03-23T09:31:08.943Z,99082.71
2019-03-23T09:32:11.806Z,99094.22
2019-03-23T09:33:15.066Z,99093.78
2019-03-23T09:34:18.941Z,99092.15
2019-03-23T09:35:24.963Z,99092.15
2019-03-23T09:36:28.030Z,99097.67
2019-03-23T09:37:30.955Z,99088.66
2019-03-23T09:38:35.356Z,99083.59
2019-03-23T09:39:38.252Z,99094.81
2019-03-23T09:40:41.202Z,99094.81
2019-03-23T09:41:45.691Z,99098.77
2019-03-23T09:42:50.403Z,99097.66
2019-03-23T09:43:55.359Z,99109.65
2019-03-23T09:44:58.386Z,99104.23
2019-03-23T09:46:02.700Z,99114.33
2019-03-23T09:47:09.115Z,99114.33
2019-03-23T09:48:12.011Z,99116.34
2019-03-23T09:49:14.878Z,99105.38
2019-03-23T09:50:18.132Z,99110.52
2019-03-23T09:51:21.240Z,99110.52
2019-03-23T09:52:24.804Z,99116.30
2019-03-23T09:53:27.985Z,99116.30
2019-03-23T09:54:31.611Z,99111.27
2019-03-23T09:55:34.884Z,99114.55
2019-03-23T09:56:40.789Z,99114.55
2019-03-23T09:57:45.203Z,99113.31
2019-03-23T09:58:48.173Z,99113.31
2019-03-23T09:59:51.001Z,99113.66
2019-03-23T10:00:54.121Z,99113.66
2019-03-23T10:01:57.006Z,99115.14
2019-03-23T10:03:00.243Z,99113.16
2019-03-23T10:04:04.362Z,99121.27
2019-03-23T10:05:07.218Z,99114.30
2019-03-23T10:06:13.184Z,99123.31
2019-03-23T10:07:16.045Z,99111.56
2019-03-23T10:08:19.082Z,99111.56
2019-03-23T10:09:22.290Z,99119.57
2019-03-23T10:10:25.172Z,99119.57
2019-03-23T10:11:28.014Z,99116.69
2019-03-23T10:12:30.876Z,99115.59
2019-03-23T10:13:33.730Z,99125.45
2019-03-23T10:14:36.594Z,99125.45
2019-03-23T10:15:48.806Z,99123.81
2019-03-23T10:16:51.633Z,99129.47
2019-03-23T10:18:01.815Z,99127.05
2019-03-23T10:19:04.748Z,99127.05
2019-03-23T10:20:12.762Z,99121.98
2019-03-23T10:21:15.622Z,99117.34
2019-03-23T10:22:22.596Z,99121.50
2019-03-23T10:23:25.536Z,99115.23
2019-03-23T10:24:28.423Z,99115.23
2019-03-23T10:25:31.274Z,99124.17
2019-03-23T10:26:35.676Z,99124.17
2019-03-23T10:27:38.498Z,99122.19
2019-03-23T10:28:45.141Z,99125.81
2019-03-23T10:29:48.034Z,99123.03
2019-03-23T10:30:51.417Z,99121.31
2019-03-23T10:31:55.792Z,99124.66
2019-03-23T10:32:59.052Z,99126.94
2019-03-23T10:34:02.298Z,99126.94
2019-03-23T10:35:12.824Z,99120.94
2019-03-23T10:36:15.740Z,99124.66
2019-03-23T10:37:18.667Z,99122.55
2019-03-23T10:38:21.540Z,99127.90
2019-03-23T10:39:24.344Z,99127.90
2019-03-23T10:40:32.433Z,99139.66
2019-03-23T10:41:32.601Z,99139.66
2019-03-23T10:42:35.446Z,99135.44
2019-03-23T10:43:39.113Z,99135.44
2019-03-23T10:44:45.249Z,99135.45
2019-03-23T10:45:48.141Z,99136.49
2019-03-23T10:46:51.534Z,99136.49
2019-03-23T10:47:58.228Z,99137.08
2019-03-23T10:49:01.900Z,99137.08
2019-03-23T10:50:08.218Z,99134.45
2019-03-23T10:51:11.133Z,99134.45
2019-03-23T10:52:14.382Z,99133.95
2019-03-23T10:53:23.296Z,99134.93
2019-03-23T10:54:27.025Z,99135.79
2019-03-23T10:55:29.883Z,99135.79
2019-03-23T10:56:32.700Z,99141.16
2019-03-23T10:57:36.762Z,99141.16
2019-03-23T10:58:39.555Z,99148.39
2019-03-23T10:59:52.490Z,99147.06
2019-03-23T11:00:55.348Z,99147.06
2019-03-23T11:01:58.262Z,99128.89
2019-03-23T11:03:03.889Z,99133.08
2019-03-23T11:04:06.701Z,99133.08
2019-03-23T11:05:10.190Z,99137.77
2019-03-23T11:06:15.318Z,99138.53
2019-03-23T11:07:18.184Z,99129.18
2019-03-23T11:08:24.684Z,99133.16
2019-03-23T11:09:29.142Z,99136.23
2019-03-23T11:10:41.462Z,99139.06
2019-03-23T11:12:01.967Z,99139.06
2019-03-23T11:13:06.843Z,99123.51
2019-03-23T11:14:10.668Z,99123.51
2019-03-23T11:15:14.632Z,99138.59
2019-03-23T11:16:23.325Z,99126.81
2019-03-23T11:17:26.256Z,99116.91
2019-03-23T11:18:34.572Z,99122.23
2019-03-23T11:19:40.403Z,99119.00
2019-03-23T11:20:43.228Z,99111.03
2019-03-23T11:21:46.499Z,99119.73
2019-03-23T11:22:49.399Z,99122.41
2019-03-23T11:23:52.264Z,99116.73
2019-03-23T11:24:55.467Z,99131.90
2019-03-23T11:25:59.910Z,99131.90
2019-03-23T11:27:02.786Z,99138.82
2019-03-23T11:28:07.969Z,99140.80
2019-03-23T11:29:10.961Z,99136.66
2019-03-23T11:42:50.421Z,99125.14
2019-03-23T11:44:04.702Z,99134.45
2019-03-23T11:49:19.205Z,99134.53
2019-03-23T11:50:23.258Z,99124.04
2019-03-23T12:11:41.843Z,99133.88
2019-03-23T12:12:45.248Z,99133.88
2019-03-23T12:13:48.098Z,99120.11
2019-03-23T12:14:53.217Z,99120.11
2019-03-23T12:15:56.138Z,99124.03
2019-03-23T12:16:59.487Z,99124.03
2019-03-23T12:18:02.437Z,99121.72
2019-03-23T12:19:05.399Z,99126.91
2019-03-23T12:20:08.216Z,99126.91
2019-03-23T12:21:11.515Z,99117.17
2019-03-23T12:22:14.488Z,99121.83
2019-03-23T12:23:17.709Z,99129.64
2019-03-23T12:24:20.635Z,99135.61
2019-03-23T12:25:25.169Z,99135.61
2019-03-23T12:26:28.544Z,99125.45
2019-03-23T12:27:37.848Z,99125.45
2019-03-23T12:28:44.806Z,99141.32
2019-03-23T12:29:47.906Z,99141.32
2019-03-23T12:30:50.722Z,99135.34
2019-03-23T12:31:53.553Z,99132.89
2019-03-23T12:32:56.385Z,99142.81
2019-03-23T12:34:10.485Z,99144.52
2019-03-23T12:35:18.195Z,99142.43
2019-03-23T12:36:21.134Z,99139.39
2019-03-23T12:37:24.019Z,99139.39
2019-03-23T12:38:27.105Z,99149.14
2019-03-23T12:39:32.843Z,99139.49
2019-03-23T12:40:36.494Z,99139.49
2019-03-23T12:41:39.782Z,99153.09
2019-03-23T12:42:42.639Z,99137.00
2019-03-23T12:43:48.519Z,99135.84
2019-03-23T12:45:05.353Z,99148.83
2019-03-23T12:46:08.417Z,99147.97
2019-03-23T12:47:11.661Z,99149.31
2019-03-23T12:48:15.366Z,99149.31
2019-03-23T12:49:18.213Z,99133.67
2019-03-23T12:50:21.117Z,99140.81
2019-03-23T12:51:24.022Z,99147.20
2019-03-23T12:52:26.819Z,99156.64
2019-03-23T12:53:30.136Z,99147.91
2019-03-23T12:54:36.946Z,99147.91
2019-03-23T12:55:51.053Z,99147.77
2019-03-23T12:56:54.040Z,99147.16
2019-03-23T12:57:57.807Z,99134.25
2019-03-23T12:59:00.662Z,99134.25
2019-03-23T13:00:04.793Z,99150.34
2019-03-23T13:01:10.807Z,99152.32
2019-03-23T13:02:13.982Z,99152.32
2019-03-23T13:03:16.866Z,99153.91
2019-03-23T13:04:20.222Z,99153.91
2019-03-23T13:05:26.641Z,99158.67
2019-03-23T13:06:32.299Z,99149.70
2019-03-23T13:07:34.622Z,99142.99
2019-03-23T13:08:39.731Z,99142.99
2019-03-23T13:09:45.303Z,99149.08
2019-03-23T13:10:51.202Z,99149.73
2019-03-23T13:11:55.571Z,99154.23
2019-03-23T13:12:58.536Z,99155.07
2019-03-23T13:14:01.743Z,99145.86
2019-03-23T13:15:04.816Z,99145.86
2019-03-23T13:16:11.212Z,99148.24
2019-03-23T13:17:14.142Z,99148.24
2019-03-23T13:18:27.104Z,99145.90
2019-03-23T13:19:25.539Z,99145.90
2019-03-23T13:20:28.534Z,99145.33